createdAt,value
2018-08-13T00:01:12.050Z,50.64
2018-08-13T00:03:41.187Z,49.95
2018-08-13T00:06:10.347Z,50.12
2018-08-13T00:08:39.487Z,50.73
2018-08-13T00:11:08.634Z,50.46
2018-08-13T00:13:37.823Z,50.90
2018-08-13T00:16:07.320Z,50.66
2018-08-13T00:18:36.479Z,50.74
2018-08-13T00:21:05.646Z,50.17
2018-08-13T00:23:34.779Z,50.78
2018-08-13T00:26:03.914Z,50.80
2018-08-13T00:28:33.126Z,50.94
2018-08-13T00:31:02.272Z,50.33
2018-08-13T00:33:32.302Z,50.22
2018-08-13T00:36:02.102Z,50.42
2018-08-13T00:38:32.214Z,50.44
2018-08-13T00:41:02.247Z,50.22
2018-08-13T00:43:32.278Z,49.81
2018-08-13T00:46:02.418Z,50.54
2018-08-13T00:48:32.443Z,51.12
2018-08-13T00:51:02.547Z,50.45
2018-08-13T00:53:32.590Z,50.55
2018-08-13T00:56:02.575Z,51.55
2018-08-13T00:58:32.650Z,50.57
2018-08-13T01:01:02.692Z,50.79
2018-08-13T01:03:32.649Z,51.39
2018-08-13T01:06:02.814Z,50.12
2018-08-13T01:08:32.927Z,50.89
2018-08-13T01:11:02.863Z,50.47
2018-08-13T01:13:32.000Z,50.68
2018-08-13T01:16:01.159Z,50.96
2018-08-13T01:18:30.726Z,51.21
2018-08-13T01:20:59.903Z,51.35
2018-08-13T01:23:29.058Z,51.08
2018-08-13T01:25:58.232Z,50.42
2018-08-13T01:28:27.394Z,51.54
2018-08-13T01:30:56.553Z,50.84
2018-08-13T01:33:25.691Z,50.89
2018-08-13T01:35:54.854Z,51.47
2018-08-13T01:38:24.229Z,51.73
2018-08-13T01:40:53.371Z,50.82
2018-08-13T01:43:22.510Z,51.06
2018-08-13T01:45:51.679Z,51.13
2018-08-13T01:48:21.021Z,50.51
2018-08-13T01:50:50.176Z,50.93
2018-08-13T01:53:19.319Z,50.56
2018-08-13T01:55:48.502Z,50.87
2018-08-13T01:58:17.639Z,50.53
2018-08-13T02:00:46.790Z,50.34
2018-08-13T02:03:15.935Z,51.60
2018-08-13T02:05:45.085Z,51.50
2018-08-13T02:08:14.239Z,51.66
2018-08-13T02:10:43.424Z,50.70
2018-08-13T02:13:12.568Z,51.05
2018-08-13T02:15:41.734Z,51.22
2018-08-13T02:18:10.988Z,51.39
2018-08-13T02:20:40.138Z,50.93
2018-08-13T02:23:09.323Z,51.17
2018-08-13T02:25:38.467Z,51.43
2018-08-13T02:28:07.634Z,51.39
2018-08-13T02:30:36.798Z,50.80
2018-08-13T02:33:05.943Z,51.77
2018-08-13T02:35:35.101Z,51.84
2018-08-13T02:38:06.036Z,51.20
2018-08-13T02:40:35.199Z,51.30
2018-08-13T02:43:05.199Z,51.05
2018-08-13T02:45:34.855Z,50.71
2018-08-13T02:48:05.127Z,50.55
2018-08-13T02:50:35.002Z,50.93
2018-08-13T02:53:05.023Z,50.66
2018-08-13T02:55:35.114Z,50.51
2018-08-13T02:58:05.898Z,50.40
2018-08-13T03:00:35.202Z,51.23
2018-08-13T03:03:07.274Z,50.55
2018-08-13T03:05:36.496Z,51.14
2018-08-13T03:08:06.983Z,50.50
2018-08-13T03:10:36.571Z,51.02
2018-08-13T03:13:06.879Z,51.49
2018-08-13T03:15:36.772Z,50.11
2018-08-13T03:18:07.083Z,51.06
2018-08-13T03:20:36.928Z,50.97
2018-08-13T03:23:07.627Z,50.82
2018-08-13T03:25:36.961Z,49.95
2018-08-13T03:28:07.112Z,49.72
2018-08-13T03:30:37.095Z,50.09
2018-08-13T03:33:07.511Z,49.88
2018-08-13T03:35:38.347Z,48.82
2018-08-13T03:38:07.502Z,48.47
2018-08-13T03:40:37.374Z,48.21
2018-08-13T03:43:07.746Z,47.78
2018-08-13T03:45:37.614Z,47.51
2018-08-13T03:48:07.842Z,48.09
2018-08-13T03:50:37.955Z,48.23
2018-08-13T03:53:08.131Z,47.86
2018-08-13T03:55:38.147Z,48.00
2018-08-13T03:58:08.126Z,48.45
2018-08-13T04:00:38.247Z,48.25
2018-08-13T04:03:08.554Z,48.36
2018-08-13T04:05:38.287Z,48.19
2018-08-13T04:08:08.423Z,47.41
2018-08-13T04:10:39.595Z,47.23
2018-08-13T04:13:08.740Z,47.82
2018-08-13T04:15:38.618Z,47.73
2018-08-13T04:18:09.634Z,48.38
2018-08-13T04:20:38.794Z,48.20
2018-08-13T04:23:08.811Z,48.24
2018-08-13T04:25:38.843Z,48.61
2018-08-13T04:28:07.999Z,47.75
2018-08-13T04:30:37.143Z,48.19
2018-08-13T04:33:06.950Z,48.52
2018-08-13T04:35:36.112Z,47.60
2018-08-13T04:38:05.251Z,47.89
2018-08-13T04:40:34.411Z,48.42
2018-08-13T04:43:03.595Z,48.07
2018-08-13T04:45:32.743Z,48.57
2018-08-13T04:48:01.893Z,48.08
2018-08-13T04:50:31.059Z,48.23
2018-08-13T04:53:00.205Z,47.79
2018-08-13T04:55:29.370Z,48.02
2018-08-13T04:57:58.555Z,47.84
2018-08-13T05:00:27.819Z,47.91
2018-08-13T05:02:56.975Z,47.73
2018-08-13T05:05:26.151Z,47.96
2018-08-13T05:07:55.294Z,47.03
2018-08-13T05:10:24.507Z,47.12
2018-08-13T05:12:53.674Z,47.17
2018-08-13T05:15:22.822Z,48.01
2018-08-13T05:17:51.971Z,47.37
2018-08-13T05:20:21.147Z,47.18
2018-08-13T05:22:50.303Z,47.02
2018-08-13T05:25:19.590Z,48.03
2018-08-13T05:27:48.751Z,47.83
2018-08-13T05:30:17.930Z,48.25
2018-08-13T05:32:47.071Z,47.83
2018-08-13T05:35:16.323Z,47.67
2018-08-13T05:37:45.510Z,48.21
2018-08-13T05:40:14.687Z,48.07
2018-08-13T05:42:43.842Z,48.05
2018-08-13T05:45:13.007Z,47.75
2018-08-13T05:47:42.219Z,47.17
2018-08-13T05:50:11.930Z,47.84
2018-08-13T05:52:41.208Z,48.08
2018-08-13T05:55:11.286Z,48.36
2018-08-13T05:57:41.291Z,48.22
2018-08-13T06:00:13.299Z,47.83
2018-08-13T06:02:43.435Z,47.28
2018-08-13T06:05:13.361Z,47.56
2018-08-13T06:07:43.312Z,47.53
2018-08-13T06:10:13.163Z,48.44
2018-08-13T06:12:42.579Z,48.87
2018-08-13T06:15:13.006Z,48.38
2018-08-13T06:17:42.319Z,49.04
2018-08-13T06:20:13.248Z,49.27
2018-08-13T06:22:43.612Z,48.26
2018-08-13T06:25:13.766Z,48.28
2018-08-13T06:27:43.065Z,47.89
2018-08-13T06:30:15.146Z,47.55
2018-08-13T06:32:44.754Z,47.76
2018-08-13T06:35:14.405Z,46.46
2018-08-13T06:37:44.205Z,46.90
2018-08-13T06:40:13.880Z,46.09
2018-08-13T06:42:43.082Z,45.93
2018-08-13T06:45:12.833Z,46.36
2018-08-13T06:47:43.005Z,46.04
2018-08-13T06:50:13.859Z,45.48
2018-08-13T06:52:43.455Z,45.19
2018-08-13T06:55:12.987Z,45.53
2018-08-13T06:57:43.115Z,44.55
2018-08-13T07:00:14.479Z,45.09
2018-08-13T07:02:43.687Z,43.61
2018-08-13T07:05:13.315Z,43.53
2018-08-13T07:07:43.346Z,44.59
2018-08-13T07:10:14.600Z,43.94
2018-08-13T07:12:45.027Z,44.48
2018-08-13T07:15:14.971Z,45.45
2018-08-13T07:17:44.171Z,46.10
2018-08-13T07:20:16.074Z,46.90
2018-08-13T07:22:45.407Z,47.48
2018-08-13T07:25:14.652Z,46.95
2018-08-13T07:27:44.097Z,47.07
2018-08-13T07:30:15.386Z,47.34
2018-08-13T07:32:44.947Z,47.31
2018-08-13T07:35:14.404Z,47.62
2018-08-13T07:37:44.387Z,49.39
2018-08-13T07:40:16.162Z,48.17
2018-08-13T07:42:46.159Z,47.74
2018-08-13T07:45:15.375Z,47.96
2018-08-13T07:47:44.754Z,48.10
2018-08-13T07:50:15.971Z,47.80
2018-08-13T07:52:46.316Z,49.53
2018-08-13T07:55:15.519Z,49.79
2018-08-13T07:57:44.992Z,50.95
2018-08-13T08:00:18.932Z,53.26
2018-08-13T08:02:48.679Z,54.82
2018-08-13T08:05:17.981Z,55.19
2018-08-13T08:07:47.281Z,55.38
2018-08-13T08:10:17.562Z,56.35
2018-08-13T08:12:46.806Z,57.89
2018-08-13T08:15:17.915Z,56.26
2018-08-13T08:17:47.117Z,56.53
2018-08-13T08:20:16.295Z,57.54
2018-08-13T08:22:45.798Z,57.07
2018-08-13T08:25:18.240Z,59.01
2018-08-13T08:27:47.407Z,60.49
2018-08-13T08:30:16.613Z,61.70
2018-08-13T08:32:46.168Z,61.28
2018-08-13T08:35:17.742Z,61.52
2018-08-13T08:37:46.979Z,62.94
2018-08-13T08:40:18.996Z,61.50
2018-08-13T08:42:48.806Z,61.16
2018-08-13T08:45:25.423Z,61.94
2018-08-13T08:47:55.493Z,62.01
2018-08-13T08:50:24.821Z,61.40
2018-08-13T08:52:53.955Z,61.29
2018-08-13T08:55:23.196Z,61.71
2018-08-13T08:57:52.482Z,62.11
2018-08-13T09:00:23.538Z,61.07
2018-08-13T09:02:52.815Z,62.06
2018-08-13T09:05:22.002Z,61.94
2018-08-13T09:07:51.173Z,61.85
2018-08-13T09:10:20.354Z,61.93
2018-08-13T09:12:49.539Z,61.38
2018-08-13T09:15:18.804Z,62.00
2018-08-13T09:19:06.847Z,62.80
2018-08-13T09:21:37.204Z,63.03
2018-08-13T09:24:23.731Z,62.49
2018-08-13T09:27:09.917Z,61.95
2018-08-13T09:29:56.087Z,61.81
2018-08-13T09:32:42.340Z,62.94
2018-08-13T09:35:23.841Z,62.12
2018-08-13T09:37:53.626Z,61.74
2018-08-13T09:40:23.076Z,62.65
2018-08-13T09:42:52.310Z,62.35
2018-08-13T09:45:21.476Z,62.60
2018-08-13T09:47:50.675Z,61.11
2018-08-13T09:50:20.635Z,60.88
2018-08-13T09:52:50.407Z,59.87
2018-08-13T09:55:20.110Z,60.01
2018-08-13T09:57:50.032Z,60.32
2018-08-13T10:00:26.431Z,58.52
2018-08-13T10:02:55.637Z,59.17
2018-08-13T10:05:24.919Z,57.96
2018-08-13T10:07:54.252Z,57.89
2018-08-13T10:10:23.598Z,57.65
2018-08-13T10:12:53.707Z,58.59
2018-08-13T10:15:23.839Z,58.60
2018-08-13T10:17:54.193Z,56.82
2018-08-13T10:20:23.999Z,58.61
2018-08-13T10:22:54.063Z,58.31
2018-08-13T10:25:24.156Z,58.55
2018-08-13T10:27:54.628Z,58.34
2018-08-13T10:30:24.283Z,57.66
2018-08-13T10:32:54.403Z,58.93
2018-08-13T10:35:24.451Z,58.27
2018-08-13T10:37:53.643Z,58.81
2018-08-13T10:40:22.827Z,58.31
2018-08-13T10:42:52.139Z,59.57
2018-08-13T10:45:21.395Z,59.60
2018-08-13T10:47:50.575Z,59.38
2018-08-13T10:50:19.911Z,59.68
2018-08-13T10:52:49.094Z,60.03
2018-08-13T10:55:18.288Z,59.70
2018-08-13T10:57:47.471Z,59.84
2018-08-13T11:00:17.375Z,59.47
2018-08-13T11:02:46.710Z,59.44
2018-08-13T11:05:16.330Z,60.81
2018-08-13T11:07:45.542Z,60.71
2018-08-13T11:10:15.625Z,59.83
2018-08-13T11:12:44.911Z,60.61
2018-08-13T11:15:19.157Z,60.79
2018-08-13T11:17:49.209Z,58.77
2018-08-13T11:20:18.968Z,59.25
2018-08-13T11:22:48.185Z,59.54
2018-08-13T11:25:17.472Z,60.08
2018-08-13T11:27:46.699Z,59.87
2018-08-13T11:30:17.232Z,58.76
2018-08-13T11:32:46.435Z,58.86
2018-08-13T11:35:16.315Z,59.25
2018-08-13T11:37:45.528Z,58.52
2018-08-13T11:40:15.856Z,60.04
2018-08-13T11:42:45.231Z,60.43
2018-08-13T11:45:14.550Z,60.24
2018-08-13T11:47:44.992Z,60.64
2018-08-13T11:52:57.851Z,61.55
2018-08-13T11:55:27.058Z,61.31
2018-08-13T11:57:56.372Z,62.24
2018-08-13T12:00:25.640Z,61.89
2018-08-13T12:02:54.866Z,62.98
2018-08-13T12:05:24.198Z,62.31
2018-08-13T12:07:53.419Z,62.72
2018-08-13T12:10:22.588Z,61.81
2018-08-13T12:12:51.863Z,60.69
2018-08-13T12:15:21.080Z,61.28
2018-08-13T12:17:50.551Z,61.69
2018-08-13T12:20:21.028Z,61.72
2018-08-13T12:22:50.216Z,61.01
2018-08-13T12:25:27.472Z,61.03
2018-08-13T12:27:56.880Z,59.97
2018-08-13T12:30:26.423Z,60.33
2018-08-13T12:32:56.494Z,60.31
2018-08-13T12:35:25.662Z,60.11
2018-08-13T12:37:55.031Z,61.12
2018-08-13T12:40:24.367Z,60.01
2018-08-13T12:42:53.625Z,59.38
2018-08-13T12:45:22.822Z,60.55
2018-08-13T12:47:52.156Z,60.87
2018-08-13T12:50:22.074Z,59.66
2018-08-13T12:52:52.319Z,58.95
2018-08-13T12:55:21.529Z,58.19
2018-08-13T12:57:50.803Z,57.69
2018-08-13T13:00:20.118Z,57.27
2018-08-13T13:02:49.395Z,58.14
2018-08-13T13:05:19.119Z,58.12
2018-08-13T13:07:48.370Z,57.54
2018-08-13T13:10:18.236Z,57.87
2018-08-13T13:12:47.544Z,56.24
2018-08-13T13:15:18.967Z,55.27
2018-08-13T13:17:48.326Z,55.92
2018-08-13T13:20:19.935Z,56.91
2018-08-13T13:22:49.557Z,54.97
2018-08-13T13:25:19.150Z,54.10
2018-08-13T13:27:48.346Z,55.33
2018-08-13T13:30:18.065Z,55.20
2018-08-13T13:32:47.255Z,55.55
2018-08-13T13:35:17.418Z,54.99
2018-08-13T13:37:46.595Z,54.32
2018-08-13T13:40:17.909Z,55.52
2018-08-13T13:42:47.071Z,55.65
2018-08-13T13:45:17.546Z,54.81
2018-08-13T13:47:47.880Z,54.40
2018-08-13T13:50:18.302Z,55.20
2018-08-13T13:52:47.715Z,55.52
2018-08-13T13:55:17.206Z,55.71
2018-08-13T13:57:46.499Z,55.52
2018-08-13T14:00:19.292Z,55.12
2018-08-13T14:02:50.420Z,57.02
2018-08-13T14:05:20.159Z,56.81
2018-08-13T14:07:49.321Z,57.30
2018-08-13T14:10:21.354Z,57.66
2018-08-13T14:12:50.534Z,57.04
2018-08-13T14:15:22.122Z,56.96
2018-08-13T14:17:52.014Z,58.08
2018-08-13T14:20:21.244Z,59.59
2018-08-13T14:22:50.666Z,60.97
2018-08-13T14:25:19.832Z,61.93
2018-08-13T14:27:49.274Z,62.85
2018-08-13T14:30:23.561Z,64.56
2018-08-13T14:32:52.759Z,65.10
2018-08-13T14:35:23.319Z,66.52
2018-08-13T14:37:52.519Z,66.64
2018-08-13T14:40:21.747Z,66.00
2018-08-13T14:42:50.939Z,64.26
2018-08-13T14:45:20.375Z,65.34
2018-08-13T14:47:55.393Z,64.83
2018-08-13T14:50:24.575Z,63.90
2018-08-13T14:52:53.789Z,63.51
2018-08-13T14:55:23.471Z,62.00
2018-08-13T14:57:52.711Z,61.46
2018-08-13T15:00:30.859Z,62.55
2018-08-13T15:03:00.051Z,60.71
2018-08-13T15:05:29.417Z,62.44
2018-08-13T15:07:58.672Z,62.24
2018-08-13T15:10:27.887Z,61.69
2018-08-13T15:12:57.229Z,61.21
2018-08-13T15:15:26.298Z,59.35
2018-08-13T15:17:55.628Z,60.13
2018-08-13T15:20:27.522Z,59.91
2018-08-13T15:22:56.942Z,58.81
2018-08-13T15:25:26.444Z,60.49
2018-08-13T15:27:55.693Z,59.08
2018-08-13T15:30:25.359Z,58.50
2018-08-13T15:32:54.843Z,59.66
2018-08-13T15:35:24.184Z,59.29
2018-08-13T15:37:53.354Z,59.46
2018-08-13T15:40:22.547Z,59.42
2018-08-13T15:42:51.715Z,58.76
2018-08-13T15:45:22.379Z,58.78
2018-08-13T15:47:52.406Z,59.66
2018-08-13T15:50:22.579Z,57.93
2018-08-13T15:52:52.220Z,58.92
2018-08-13T15:55:21.502Z,58.41
2018-08-13T15:57:50.711Z,58.37
2018-08-13T16:00:24.424Z,58.88
2018-08-13T16:02:53.836Z,58.55
2018-08-13T16:05:23.234Z,57.36
2018-08-13T16:07:52.936Z,57.28
2018-08-13T16:10:22.111Z,56.63
2018-08-13T16:12:51.271Z,57.06
2018-08-13T16:15:20.439Z,56.59
2018-08-13T16:17:49.594Z,56.46
2018-08-13T16:20:19.863Z,55.72
2018-08-13T16:22:49.793Z,56.51
2018-08-13T16:25:19.179Z,56.77
2018-08-13T16:27:48.778Z,57.11
2018-08-13T16:30:31.715Z,56.11
2018-08-13T16:33:00.914Z,55.57
2018-08-13T16:35:30.252Z,55.43
2018-08-13T16:37:59.498Z,58.52
2018-08-13T16:40:28.806Z,59.49
2018-08-13T16:42:57.950Z,61.27
2018-08-13T16:45:27.215Z,62.04
2018-08-13T16:47:56.430Z,63.79
2018-08-13T16:50:34.195Z,63.86
2018-08-13T16:53:03.689Z,64.66
2018-08-13T16:55:33.640Z,65.41
2018-08-13T16:58:03.318Z,65.82
2018-08-13T17:00:32.929Z,65.02
2018-08-13T17:03:02.331Z,66.04
2018-08-13T17:05:33.699Z,66.34
2018-08-13T17:08:03.027Z,66.69
2018-08-13T17:10:32.163Z,66.56
2018-08-13T17:13:01.348Z,65.40
2018-08-13T17:15:32.027Z,66.29
2018-08-13T17:18:02.651Z,66.00
2018-08-13T17:20:39.634Z,65.23
2018-08-13T17:23:08.806Z,65.82
2018-08-13T17:25:38.013Z,66.80
2018-08-13T17:28:07.436Z,66.05
2018-08-13T17:30:36.580Z,66.62
2018-08-13T17:33:07.039Z,66.07
2018-08-13T17:35:36.971Z,66.96
2018-08-13T17:38:09.190Z,66.68
2018-08-13T17:40:38.459Z,66.61
2018-08-13T17:43:09.768Z,66.29
2018-08-13T17:45:38.774Z,66.59
2018-08-13T17:48:09.703Z,66.50
2018-08-13T17:50:38.943Z,65.84
2018-08-13T17:53:09.578Z,66.37
2018-08-13T17:55:38.768Z,66.28
2018-08-13T17:58:07.960Z,66.55
2018-08-13T18:00:37.151Z,65.79
2018-08-13T18:03:06.727Z,66.88
2018-08-13T18:05:35.882Z,66.38
2018-08-13T18:08:05.050Z,67.26
2018-08-13T18:10:34.953Z,67.71
2018-08-13T18:16:40.952Z,67.93
2018-08-13T18:19:10.219Z,67.50
2018-08-13T18:21:40.570Z,68.38
2018-08-13T18:24:09.767Z,68.17
2018-08-13T18:26:38.936Z,66.76
2018-08-13T18:29:08.535Z,66.57
2018-08-13T18:31:37.720Z,67.68
2018-08-13T18:34:07.811Z,66.75
2018-08-13T18:36:36.982Z,66.69
2018-08-13T18:39:08.414Z,67.02
2018-08-13T18:41:37.583Z,67.93
2018-08-13T18:44:08.998Z,68.03
2018-08-13T18:46:38.267Z,67.72
2018-08-13T18:49:07.442Z,66.87
2018-08-13T18:51:36.695Z,66.42
2018-08-13T18:54:06.013Z,67.16
2018-08-13T18:56:35.203Z,67.30
2018-08-13T18:59:04.505Z,67.25
2018-08-13T19:01:33.638Z,66.52
2018-08-13T19:04:02.806Z,67.46
2018-08-13T19:06:31.966Z,67.18
2018-08-13T19:09:01.139Z,66.88
2018-08-13T19:11:30.376Z,67.77
2018-08-13T19:13:59.566Z,67.60
2018-08-13T19:16:28.872Z,66.78
2018-08-13T19:18:58.261Z,67.06
2018-08-13T19:21:27.533Z,66.52
2018-08-13T19:23:56.966Z,66.81
2018-08-13T19:26:27.118Z,66.82
2018-08-13T19:28:57.242Z,66.46
2018-08-13T19:31:27.324Z,66.77
2018-08-13T19:33:56.505Z,67.19
2018-08-13T19:36:25.714Z,66.32
2018-08-13T19:38:54.962Z,66.53
2018-08-13T19:41:24.114Z,67.04
2018-08-13T19:43:53.303Z,67.08
2018-08-13T19:46:22.528Z,66.10
2018-08-13T19:48:51.700Z,65.97
2018-08-13T19:51:20.888Z,66.48
2018-08-13T19:53:50.063Z,66.12
2018-08-13T19:56:19.287Z,65.95
2018-08-13T19:58:48.471Z,64.79
2018-08-13T20:01:17.734Z,65.06
2018-08-13T20:03:46.942Z,65.35
2018-08-13T20:06:16.199Z,65.77
2018-08-13T20:08:45.373Z,65.64
2018-08-13T20:11:14.534Z,65.73
2018-08-13T20:13:43.794Z,64.85
2018-08-13T20:16:12.896Z,65.58
2018-08-13T20:18:42.051Z,65.83
2018-08-13T20:21:11.300Z,65.40
2018-08-13T20:23:40.923Z,65.36
2018-08-13T20:26:10.190Z,65.43
2018-08-13T20:28:39.395Z,64.98
2018-08-13T20:31:09.055Z,65.67
2018-08-13T20:33:38.258Z,65.87
2018-08-13T20:36:07.430Z,65.95
2018-08-13T20:38:36.683Z,66.31
2018-08-13T20:41:05.883Z,67.32
2018-08-13T20:43:35.077Z,66.63
2018-08-13T20:46:04.382Z,67.10
2018-08-13T20:48:33.571Z,67.25
2018-08-13T20:51:03.224Z,67.26
2018-08-13T20:53:33.396Z,67.65
2018-08-13T20:56:10.120Z,67.02
2018-08-13T20:58:39.290Z,67.82
2018-08-13T21:01:08.627Z,68.33
2018-08-13T21:03:38.056Z,67.71
2018-08-13T21:06:07.461Z,68.29
2018-08-13T21:08:36.621Z,68.57
2018-08-13T21:11:06.307Z,67.96
2018-08-13T21:13:35.493Z,67.31
2018-08-13T21:16:05.728Z,68.38
2018-08-13T21:18:34.979Z,68.29
2018-08-13T21:21:04.320Z,67.40
2018-08-13T21:23:34.579Z,67.32
2018-08-13T21:26:04.384Z,68.49
2018-08-13T21:28:34.430Z,68.50
2018-08-13T21:31:04.534Z,68.67
2018-08-13T21:33:34.658Z,67.72
2018-08-13T21:36:04.731Z,68.45
2018-08-13T21:38:33.895Z,68.39
2018-08-13T21:41:03.150Z,68.33
2018-08-13T21:43:32.458Z,67.89
2018-08-13T21:46:01.648Z,68.36
2018-08-13T21:48:30.923Z,68.23
2018-08-13T21:51:00.463Z,68.02
2018-08-13T21:53:29.664Z,68.44
2018-08-13T21:55:58.841Z,68.53
2018-08-13T21:58:28.152Z,68.16
2018-08-13T22:01:02.609Z,68.05
2018-08-13T22:03:32.002Z,67.40
2018-08-13T22:06:01.188Z,68.23
2018-08-13T22:08:30.381Z,68.48
2018-08-13T22:10:59.645Z,67.75
2018-08-13T22:13:28.922Z,67.83
2018-08-13T22:15:58.131Z,67.88
2018-08-13T22:18:27.395Z,68.07
2018-08-13T22:20:56.582Z,68.20
2018-08-13T22:23:25.802Z,68.14
2018-08-13T22:25:55.030Z,68.41
2018-08-13T22:28:24.208Z,68.53
2018-08-13T22:30:53.497Z,67.98
2018-08-13T22:33:22.691Z,67.92
2018-08-13T22:35:51.871Z,68.21
2018-08-13T22:38:21.106Z,67.47
2018-08-13T22:40:50.300Z,67.94
2018-08-13T22:43:19.547Z,68.01
2018-08-13T22:45:48.714Z,68.46
2018-08-13T22:48:17.967Z,67.81
2018-08-13T22:50:47.190Z,68.48
2018-08-13T22:53:16.383Z,68.13
2018-08-13T22:55:45.790Z,67.46
2018-08-13T22:58:15.007Z,67.47
2018-08-13T23:00:44.190Z,67.94
2018-08-13T23:03:13.355Z,67.66
2018-08-13T23:05:42.576Z,68.26
2018-08-13T23:08:11.849Z,68.83
2018-08-13T23:10:41.264Z,67.88
2018-08-13T23:13:17.607Z,68.77
2018-08-13T23:15:46.944Z,68.84
2018-08-13T23:18:16.239Z,68.58
2018-08-13T23:20:45.451Z,68.46
2018-08-13T23:23:14.623Z,68.09
2018-08-13T23:25:43.867Z,67.43
2018-08-13T23:28:13.041Z,68.08
2018-08-13T23:30:42.217Z,68.21
2018-08-13T23:33:13.307Z,67.45
2018-08-13T23:35:42.472Z,67.44
2018-08-13T23:38:12.722Z,67.97
2018-08-13T23:40:42.786Z,67.89
2018-08-13T23:43:13.843Z,67.61
2018-08-13T23:45:43.003Z,67.86
2018-08-13T23:48:13.101Z,67.21
2018-08-13T23:50:43.120Z,67.88
2018-08-13T23:53:13.296Z,68.50
2018-08-13T23:55:43.426Z,67.28
2018-08-13T23:58:13.831Z,67.90
